createdAt,value
2019-04-06T00:01:48.497Z,125.67
2019-04-06T00:04:22.228Z,120.93
2019-04-06T00:06:55.826Z,125.00
2019-04-06T00:09:29.467Z,113.97
2019-04-06T00:12:03.068Z,115.83
2019-04-06T00:14:38.393Z,259.00
2019-04-06T00:17:12.066Z,277.13
2019-04-06T00:19:46.242Z,153.30
2019-04-06T00:22:20.030Z,255.93
2019-04-06T00:24:54.033Z,259.13
2019-04-06T00:27:27.669Z,294.50
2019-04-06T00:30:01.321Z,156.57
2019-04-06T00:32:42.374Z,70.17
2019-04-06T00:35:16.021Z,107.00
2019-04-06T00:37:50.097Z,148.90
2019-04-06T00:40:24.296Z,68.73
2019-04-06T00:42:58.199Z,95.30
2019-04-06T00:45:32.279Z,95.20
2019-04-06T00:48:06.063Z,177.33
2019-04-06T00:50:39.720Z,153.00
2019-04-06T00:53:13.357Z,213.53
2019-04-06T00:55:55.543Z,165.20
2019-04-06T00:58:22.390Z,223.43
2019-04-06T01:00:56.113Z,169.23
2019-04-06T01:03:30.152Z,221.57
2019-04-06T01:06:03.878Z,87.70
2019-04-06T01:08:37.484Z,95.97
2019-04-06T01:11:11.196Z,67.23
2019-04-06T01:13:44.901Z,69.97
2019-04-06T01:16:18.705Z,67.23
2019-04-06T01:18:52.439Z,99.13
2019-04-06T01:21:26.338Z,74.87
2019-04-06T01:24:00.021Z,78.70
2019-04-06T01:26:33.780Z,93.17
2019-04-06T01:29:07.359Z,93.27
2019-04-06T01:31:41.110Z,213.90
2019-04-06T01:34:14.713Z,196.50
2019-04-06T01:36:48.364Z,174.70
2019-04-06T01:39:22.025Z,212.27
2019-04-06T01:41:55.740Z,173.57
2019-04-06T01:44:29.463Z,527.77
2019-04-06T01:47:03.243Z,205.87
2019-04-06T01:49:36.967Z,120.30
2019-04-06T01:52:10.715Z,136.60
2019-04-06T01:54:44.811Z,108.83
2019-04-06T01:57:18.579Z,89.70
2019-04-06T01:59:52.568Z,84.50
2019-04-06T02:02:34.887Z,103.87
2019-04-06T02:05:09.281Z,89.60
2019-04-06T02:07:43.008Z,99.47
2019-04-06T02:10:16.976Z,102.03
2019-04-06T02:12:50.694Z,120.70
2019-04-06T02:15:24.383Z,143.13
2019-04-06T02:17:58.101Z,485.13
2019-04-06T02:20:31.732Z,264.77
2019-04-06T02:23:05.371Z,151.63
2019-04-06T02:25:39.361Z,501.63
2019-04-06T02:28:13.465Z,210.30
2019-04-06T02:30:59.985Z,104.20
2019-04-06T02:34:07.578Z,90.53
2019-04-06T02:37:02.990Z,132.67
2019-04-06T02:40:07.690Z,128.77
2019-04-06T02:42:51.243Z,73.90
2019-04-06T02:45:25.203Z,74.43
2019-04-06T02:47:58.946Z,77.20
2019-04-06T02:50:33.059Z,72.67
2019-04-06T02:53:06.819Z,112.10
2019-04-06T02:55:40.502Z,83.07
2019-04-06T02:58:14.283Z,74.87
2019-04-06T03:00:47.953Z,82.13
2019-04-06T03:03:21.775Z,73.87
2019-04-06T03:05:55.472Z,103.20
2019-04-06T03:08:29.200Z,84.47
2019-04-06T03:11:02.989Z,80.13
2019-04-06T03:13:36.866Z,70.27
2019-04-06T03:16:10.780Z,80.57
2019-04-06T03:18:44.492Z,75.00
2019-04-06T03:21:18.239Z,78.77
2019-04-06T03:23:52.547Z,77.30
2019-04-06T03:26:26.442Z,85.60
2019-04-06T03:29:00.492Z,79.53
2019-04-06T03:31:34.275Z,84.63
2019-04-06T03:34:08.039Z,79.60
2019-04-06T03:36:41.718Z,73.07
2019-04-06T03:39:15.353Z,87.30
2019-04-06T03:41:49.047Z,93.73
2019-04-06T03:47:05.767Z,97.93
2019-04-06T03:49:39.469Z,97.93
2019-04-06T03:52:13.135Z,104.53
2019-04-06T03:54:46.776Z,92.10
2019-04-06T03:57:20.340Z,108.93
2019-04-06T03:59:54.048Z,93.63
2019-04-06T04:02:27.792Z,95.47
2019-04-06T04:05:02.226Z,94.17
2019-04-06T04:07:35.814Z,95.50
2019-04-06T04:10:10.075Z,87.83
2019-04-06T04:12:43.697Z,94.57
2019-04-06T04:15:18.109Z,95.70
2019-04-06T04:17:52.872Z,86.83
2019-04-06T04:20:26.498Z,89.70
2019-04-06T04:23:00.182Z,82.00
2019-04-06T04:25:33.960Z,91.67
2019-04-06T04:28:08.393Z,78.17
2019-04-06T04:30:42.169Z,101.53
2019-04-06T04:33:15.826Z,82.17
2019-04-06T04:35:49.460Z,94.90
2019-04-06T04:38:23.123Z,112.40
2019-04-06T04:40:56.822Z,113.30
2019-04-06T04:43:30.508Z,105.20
2019-04-06T04:46:04.301Z,190.33
2019-04-06T04:48:37.949Z,114.63
2019-04-06T04:51:11.521Z,103.93
2019-04-06T04:53:45.693Z,220.37
2019-04-06T04:56:19.454Z,99.50
2019-04-06T04:58:53.268Z,107.60
2019-04-06T05:01:26.934Z,252.27
2019-04-06T05:04:01.226Z,135.67
2019-04-06T05:06:34.808Z,408.77
2019-04-06T05:09:09.475Z,264.93
2019-04-06T05:11:43.540Z,88.63
2019-04-06T05:15:00.170Z,159.63
2019-04-06T05:17:34.355Z,134.27
2019-04-06T05:20:09.845Z,124.47
2019-04-06T05:22:43.466Z,47.77
2019-04-06T05:25:23.096Z,44.60
2019-04-06T05:27:56.737Z,54.87
2019-04-06T05:30:30.522Z,76.97
2019-04-06T05:33:07.586Z,127.40
2019-04-06T05:35:41.242Z,76.10
2019-04-06T05:38:15.412Z,259.07
2019-04-06T05:40:50.408Z,50.80
2019-04-06T05:43:25.708Z,125.90
2019-04-06T05:45:59.449Z,173.03
2019-04-06T05:48:38.985Z,164.67
2019-04-06T05:51:15.553Z,381.17
2019-04-06T05:54:09.158Z,381.93
2019-04-06T05:56:42.823Z,261.80
2019-04-06T05:59:16.621Z,325.63
2019-04-06T06:01:50.952Z,544.13
2019-04-06T06:04:27.763Z,474.97
2019-04-06T06:07:20.477Z,284.23
2019-04-06T06:10:15.203Z,272.87
2019-04-06T06:12:48.877Z,442.70
2019-04-06T06:15:28.248Z,498.40
2019-04-06T06:18:02.150Z,461.43
2019-04-06T06:20:35.796Z,532.73
2019-04-06T06:23:10.382Z,258.03
2019-04-06T06:25:44.081Z,292.53
2019-04-06T06:28:17.664Z,133.03
2019-04-06T06:30:51.300Z,165.60
2019-04-06T06:33:24.849Z,148.97
2019-04-06T06:35:58.689Z,105.03
2019-04-06T06:38:32.236Z,100.13
2019-04-06T06:41:05.990Z,74.73
2019-04-06T06:43:39.589Z,68.37
2019-04-06T06:46:13.227Z,62.30
2019-04-06T06:48:46.903Z,66.50
2019-04-06T06:51:36.511Z,70.87
2019-04-06T06:54:10.065Z,67.77
2019-04-06T06:56:44.213Z,59.93
2019-04-06T06:59:17.998Z,58.80
2019-04-06T07:01:51.704Z,64.67
2019-04-06T07:04:26.552Z,66.53
2019-04-06T07:07:00.157Z,66.73
2019-04-06T07:09:33.808Z,64.13
2019-04-06T07:12:07.855Z,63.70
2019-04-06T07:14:41.587Z,69.50
2019-04-06T07:17:15.392Z,70.60
2019-04-06T07:19:49.091Z,61.10
2019-04-06T07:22:22.706Z,67.20
2019-04-06T07:24:56.281Z,67.17
2019-04-06T07:27:29.956Z,74.47
2019-04-06T07:30:03.596Z,72.10
2019-04-06T07:32:37.177Z,66.03
2019-04-06T07:35:11.217Z,73.97
2019-04-06T07:37:45.175Z,84.70
2019-04-06T07:40:19.149Z,72.43
2019-04-06T07:42:52.739Z,70.80
2019-04-06T07:45:26.729Z,70.77
2019-04-06T07:48:00.350Z,72.10
2019-04-06T07:50:33.914Z,66.83
2019-04-06T07:53:07.553Z,63.77
2019-04-06T07:55:45.669Z,67.73
2019-04-06T07:58:20.504Z,70.10
2019-04-06T08:00:54.597Z,73.67
2019-04-06T08:03:28.385Z,64.53
2019-04-06T08:06:03.767Z,66.97
2019-04-06T08:08:37.407Z,69.33
2019-04-06T08:11:11.624Z,73.30
2019-04-06T08:14:19.446Z,78.77
2019-04-06T08:16:49.063Z,78.67
2019-04-06T08:19:23.173Z,68.43
2019-04-06T08:21:56.842Z,76.17
2019-04-06T08:24:31.721Z,70.37
2019-04-06T08:27:05.723Z,74.63
2019-04-06T08:29:39.470Z,72.57
2019-04-06T08:32:16.615Z,79.93
2019-04-06T08:34:50.263Z,74.00
2019-04-06T08:37:24.483Z,73.57
2019-04-06T08:39:58.912Z,80.97
2019-04-06T08:42:32.539Z,80.87
2019-04-06T08:45:06.710Z,76.23
2019-04-06T08:47:40.539Z,78.50
2019-04-06T08:50:15.218Z,72.77
2019-04-06T08:52:49.113Z,78.80
2019-04-06T08:55:27.133Z,75.77
2019-04-06T08:58:05.751Z,74.43
2019-04-06T09:00:39.360Z,71.33
2019-04-06T09:03:13.875Z,76.97
2019-04-06T09:05:47.759Z,75.73
2019-04-06T09:08:21.453Z,74.73
2019-04-06T09:10:56.872Z,77.73
2019-04-06T09:13:30.564Z,73.23
2019-04-06T09:16:04.262Z,64.53
2019-04-06T09:18:39.721Z,72.10
2019-04-06T09:21:25.636Z,71.63
2019-04-06T09:23:59.355Z,80.03
2019-04-06T09:26:33.404Z,66.13
2019-04-06T09:29:08.251Z,74.87
2019-04-06T09:31:42.256Z,70.23
2019-04-06T09:34:17.270Z,72.50
2019-04-06T09:36:50.830Z,72.17
2019-04-06T09:39:24.460Z,74.33
2019-04-06T09:41:58.103Z,75.93
2019-04-06T15:50:58.193Z,23.63
2019-04-06T15:53:42.213Z,23.93
2019-04-06T15:56:26.321Z,21.17
2019-04-06T15:59:21.701Z,23.03
2019-04-06T16:02:09.647Z,29.53
2019-04-06T16:05:11.025Z,21.90
2019-04-06T16:08:01.406Z,24.20
2019-04-06T16:10:45.881Z,25.80
2019-04-06T16:13:43.474Z,22.07
2019-04-06T16:16:35.870Z,25.70
2019-04-06T16:19:18.881Z,22.33
2019-04-06T16:21:59.618Z,24.20
2019-04-06T16:24:58.544Z,30.43
2019-04-06T16:28:09.156Z,22.33
2019-04-06T16:30:52.966Z,24.17
2019-04-06T16:33:43.816Z,24.03
2019-04-06T16:36:34.485Z,25.03
2019-04-06T16:39:27.780Z,24.10
2019-04-06T16:42:19.050Z,21.37
2019-04-06T16:45:14.667Z,23.60
2019-04-06T16:48:13.532Z,21.80
2019-04-06T16:51:18.665Z,22.10
2019-04-06T16:54:11.433Z,26.93
2019-04-06T16:57:02.691Z,21.00
2019-04-06T17:00:01.687Z,28.67
2019-04-06T17:02:59.312Z,26.50
2019-04-06T17:06:04.217Z,29.10
2019-04-06T17:08:54.279Z,25.33
2019-04-06T17:11:56.632Z,25.57
2019-04-06T17:15:04.187Z,23.00
2019-04-06T17:17:58.922Z,22.13
2019-04-06T17:20:40.705Z,23.90
2019-04-06T17:23:31.859Z,26.33
2019-04-06T17:26:14.157Z,26.07
2019-04-06T17:29:07.966Z,27.67
2019-04-06T17:32:15.955Z,25.20
2019-04-06T17:35:22.120Z,25.70
2019-04-06T17:38:00.403Z,26.33
2019-04-06T17:40:51.097Z,24.77
2019-04-06T17:43:47.500Z,24.30
2019-04-06T17:46:31.560Z,27.03
2019-04-06T17:49:24.785Z,29.40
2019-04-06T17:52:16.560Z,31.90
2019-04-06T17:55:02.062Z,27.67
2019-04-06T17:58:11.146Z,26.93
2019-04-06T18:01:02.781Z,27.27
2019-04-06T18:03:59.946Z,30.33
2019-04-06T18:06:59.059Z,32.00
2019-04-06T18:09:42.762Z,24.00
2019-04-06T18:12:41.826Z,24.87
2019-04-06T18:15:16.771Z,26.93
2019-04-06T18:17:50.474Z,27.20
2019-04-06T18:20:24.334Z,27.87
2019-04-06T18:22:59.230Z,29.60
2019-04-06T18:25:33.183Z,30.70
2019-04-06T18:28:07.435Z,32.67
2019-04-06T18:30:42.073Z,30.30
2019-04-06T18:33:19.859Z,25.27
2019-04-06T18:35:54.073Z,28.37
2019-04-06T18:38:42.706Z,28.00
2019-04-06T18:41:15.868Z,29.40
2019-04-06T18:43:50.368Z,31.43
2019-04-06T18:46:24.185Z,28.10
2019-04-06T18:48:57.809Z,33.57
2019-04-06T18:51:32.095Z,36.00
2019-04-06T18:54:08.330Z,30.90
2019-04-06T18:56:42.295Z,28.90
2019-04-06T18:59:16.030Z,25.93
2019-04-06T19:01:49.737Z,28.43
2019-04-06T19:04:23.831Z,27.40
2019-04-06T19:06:57.602Z,22.90
2019-04-06T19:09:31.571Z,24.83
2019-04-06T19:12:05.331Z,24.13
2019-04-06T19:14:39.429Z,25.53
2019-04-06T19:17:13.312Z,22.50
2019-04-06T19:19:46.991Z,29.73
2019-04-06T19:22:21.234Z,25.47
2019-04-06T19:24:55.414Z,21.87
2019-04-06T19:27:29.577Z,27.20
2019-04-06T19:30:03.774Z,22.00
2019-04-06T19:32:38.960Z,23.20
2019-04-06T19:35:13.254Z,26.87
2019-04-06T19:37:47.609Z,28.43
2019-04-06T19:40:24.030Z,27.37
2019-04-06T19:42:58.285Z,29.40
2019-04-06T19:45:32.639Z,41.80
2019-04-06T19:48:06.651Z,32.80
2019-04-06T19:50:40.968Z,25.67
2019-04-06T19:53:16.816Z,28.33
2019-04-06T19:55:50.911Z,30.77
2019-04-06T19:58:25.836Z,27.60
2019-04-06T20:01:00.327Z,23.30
2019-04-06T20:03:39.283Z,31.93
2019-04-06T20:06:13.312Z,23.83
2019-04-06T20:08:48.643Z,24.97
2019-04-06T20:11:22.762Z,25.03
2019-04-06T20:13:57.177Z,26.00
2019-04-06T20:16:31.862Z,25.60
2019-04-06T20:19:05.722Z,24.43
2019-04-06T20:21:40.071Z,24.53
2019-04-06T20:24:14.409Z,24.87
2019-04-06T20:26:48.172Z,25.33
2019-04-06T20:29:22.238Z,20.93
2019-04-06T20:31:56.351Z,23.43
2019-04-06T20:34:31.412Z,24.03
2019-04-06T20:37:05.516Z,19.50
2019-04-06T20:39:39.548Z,23.90
2019-04-06T20:42:13.335Z,24.50
2019-04-06T20:44:47.256Z,26.43
2019-04-06T20:47:21.551Z,27.70
2019-04-06T20:49:56.452Z,25.23
2019-04-06T20:52:30.594Z,27.73
2019-04-06T20:55:04.502Z,27.30
2019-04-06T20:57:38.517Z,22.00
2019-04-06T21:00:12.661Z,25.23
2019-04-06T21:02:46.568Z,24.63
2019-04-06T21:05:20.196Z,23.67
2019-04-06T21:07:54.380Z,24.40
2019-04-06T21:10:29.229Z,23.47
2019-04-06T21:13:04.330Z,21.27
2019-04-06T21:15:38.524Z,28.60
2019-04-06T21:18:12.501Z,25.23
2019-04-06T21:20:46.455Z,21.20
2019-04-06T21:23:20.689Z,27.50
2019-04-06T21:25:57.550Z,24.40
2019-04-06T21:28:32.183Z,21.10
2019-04-06T21:31:06.525Z,22.50
2019-04-06T21:33:40.277Z,23.63
2019-04-06T21:36:14.138Z,26.40
2019-04-06T21:38:48.178Z,28.80
2019-04-06T21:41:22.245Z,25.53
2019-04-06T21:43:58.465Z,21.40
2019-04-06T21:46:32.643Z,21.80
2019-04-06T21:49:06.452Z,20.43
2019-04-06T21:51:40.823Z,26.43
2019-04-06T21:54:14.798Z,21.10
2019-04-06T21:56:49.069Z,25.90
2019-04-06T21:59:23.429Z,25.87
2019-04-06T22:01:58.062Z,25.30
2019-04-06T22:04:33.675Z,28.10
2019-04-06T22:07:08.735Z,23.97
2019-04-06T22:09:42.409Z,23.20
2019-04-06T22:12:16.300Z,20.30
2019-04-06T22:14:50.600Z,30.67
2019-04-06T22:17:24.470Z,23.50
2019-04-06T22:19:58.269Z,19.50
2019-04-06T22:22:32.520Z,23.10
2019-04-06T22:25:06.648Z,26.60
2019-04-06T22:27:40.274Z,27.37
2019-04-06T22:30:14.850Z,24.67
2019-04-06T22:32:49.076Z,19.90
2019-04-06T22:35:23.242Z,30.23
2019-04-06T22:37:57.323Z,25.23
2019-04-06T22:40:31.475Z,24.50
2019-04-06T22:43:05.339Z,25.37
2019-04-06T22:45:39.273Z,26.73
2019-04-06T22:48:13.694Z,22.50
2019-04-06T22:50:47.524Z,29.00
2019-04-06T22:53:21.121Z,27.03
2019-04-06T22:55:55.183Z,29.60
2019-04-06T22:58:28.920Z,25.10
2019-04-06T23:01:07.959Z,27.20
2019-04-06T23:03:59.560Z,25.63
2019-04-06T23:06:37.397Z,22.73
2019-04-06T23:09:11.192Z,24.70
2019-04-06T23:11:45.856Z,24.73
2019-04-06T23:14:20.784Z,22.93
2019-04-06T23:16:55.252Z,22.20
2019-04-06T23:19:29.400Z,53.07
2019-04-06T23:22:03.623Z,28.67
2019-04-06T23:24:37.491Z,31.40
2019-04-06T23:27:11.533Z,36.47
2019-04-06T23:29:45.100Z,27.07
2019-04-06T23:32:18.722Z,28.23
2019-04-06T23:34:59.478Z,24.73
2019-04-06T23:37:27.680Z,25.20
2019-04-06T23:40:01.646Z,26.63
2019-04-06T23:42:35.692Z,27.97
2019-04-06T23:45:09.442Z,24.50
2019-04-06T23:47:43.436Z,25.30
2019-04-06T23:50:17.654Z,27.23
2019-04-06T23:52:51.643Z,26.40
2019-04-06T23:55:25.184Z,30.03
2019-04-06T23:57:58.929Z,26.53
